Albany, Oregon
Current Conditions -  °F | °C
As of 5:15 AM on Friday 28 Nov 2014 (Local Time) from KCVO Reporting Station
Overcast Overcast  
Wind Chill: 55°   Ceiling: 2200
Heat Index: 55°   Visibility: 5mi
Dew Point: 50°   Wind: 8mph
Humidity: 82%   Direction: 170°S
Pressure: 29.74"   Gusts: NA
Location:  44.64°N, 123.1°W
Report Text: KCVO 281315Z AUTO 17007KT 5SM FEW005 BKN022 OVC033 13/10 A2974 RMK AO1 P0003
Loading
Personal Weather Stations






























Interactive Weather Map New forecast layout! Learn more

10-Day Weather Forecast

Advertisements
Track Severe Weather on mobile